sensor_id;sensor_type;location;lat;lon;timestamp;pressure;altitude;pressure_sealevel;temperature;humidity
48718;BME280;34521;33.042;-96.586;2023-04-30T00:02:22;99397.04;;;23.13;29.71
48718;BME280;34521;33.042;-96.586;2023-04-30T00:04:47;99405.36;;;23.25;29.94
48718;BME280;34521;33.042;-96.586;2023-04-30T00:07:12;99407.37;;;22.72;30.24
48718;BME280;34521;33.042;-96.586;2023-04-30T00:09:37;99409.26;;;22.92;30.06
48718;BME280;34521;33.042;-96.586;2023-04-30T00:12:02;99405.42;;;22.35;31.07
48718;BME280;34521;33.042;-96.586;2023-04-30T00:14:27;99406.95;;;22.51;30.86
48718;BME280;34521;33.042;-96.586;2023-04-30T00:16:52;99411.21;;;23.07;30.25
48718;BME280;34521;33.042;-96.586;2023-04-30T00:19:17;99411.78;;;22.76;30.59
48718;BME280;34521;33.042;-96.586;2023-04-30T00:21:42;99413.13;;;22.85;30.90
48718;BME280;34521;33.042;-96.586;2023-04-30T00:24:07;99411.32;;;23.07;30.41
48718;BME280;34521;33.042;-96.586;2023-04-30T00:26:32;99414.87;;;22.95;30.25
48718;BME280;34521;33.042;-96.586;2023-04-30T00:28:57;99414.66;;;22.82;30.78
48718;BME280;34521;33.042;-96.586;2023-04-30T00:31:24;99407.88;;;23.07;30.47
48718;BME280;34521;33.042;-96.586;2023-04-30T00:33:47;99408.23;;;22.64;30.94
48718;BME280;34521;33.042;-96.586;2023-04-30T00:36:12;99404.24;;;22.21;31.58
48718;BME280;34521;33.042;-96.586;2023-04-30T00:38:38;99403.57;;;22.20;32.26
48718;BME280;34521;33.042;-96.586;2023-04-30T00:41:04;99403.18;;;21.95;32.55
48718;BME280;34521;33.042;-96.586;2023-04-30T00:43:28;99402.30;;;21.81;32.73
48718;BME280;34521;33.042;-96.586;2023-04-30T00:45:53;99400.70;;;21.72;32.58
48718;BME280;34521;33.042;-96.586;2023-04-30T00:48:18;99405.51;;;22.17;31.63
48718;BME280;34521;33.042;-96.586;2023-04-30T00:50:43;99404.32;;;22.55;31.24
48718;BME280;34521;33.042;-96.586;2023-04-30T00:53:08;99406.04;;;23.78;30.18
48718;BME280;34521;33.042;-96.586;2023-04-30T00:55:33;99411.80;;;22.89;30.56
48718;BME280;34521;33.042;-96.586;2023-04-30T00:57:59;99409.87;;;22.97;30.52
48718;BME280;34521;33.042;-96.586;2023-04-30T01:00:24;99404.05;;;23.75;29.93
48718;BME280;34521;33.042;-96.586;2023-04-30T01:02:49;99411.33;;;23.67;30.03
48718;BME280;34521;33.042;-96.586;2023-04-30T01:05:13;99407.47;;;23.73;30.02
48718;BME280;34521;33.042;-96.586;2023-04-30T01:07:38;99414.22;;;22.77;30.93
48718;BME280;34521;33.042;-96.586;2023-04-30T01:10:04;99414.66;;;22.55;31.32
48718;BME280;34521;33.042;-96.586;2023-04-30T01:12:36;99419.67;;;22.62;31.42
48718;BME280;34521;33.042;-96.586;2023-04-30T01:15:03;99421.43;;;22.19;31.90
48718;BME280;34521;33.042;-96.586;2023-04-30T01:17:26;99420.54;;;21.92;32.21
48718;BME280;34521;33.042;-96.586;2023-04-30T01:19:45;99422.66;;;22.32;31.76
48718;BME280;34521;33.042;-96.586;2023-04-30T01:22:13;99425.65;;;22.63;31.38
48718;BME280;34521;33.042;-96.586;2023-04-30T01:27:06;99423.08;;;22.37;31.85
48718;BME280;34521;33.042;-96.586;2023-04-30T01:29:24;99425.78;;;21.75;32.25
48718;BME280;34521;33.042;-96.586;2023-04-30T01:31:49;99424.56;;;21.90;32.07
48718;BME280;34521;33.042;-96.586;2023-04-30T01:34:14;99427.81;;;22.07;32.22
48718;BME280;34521;33.042;-96.586;2023-04-30T01:36:49;99429.10;;;21.72;32.52
48718;BME280;34521;33.042;-96.586;2023-04-30T01:39:17;99428.04;;;22.34;32.35
48718;BME280;34521;33.042;-96.586;2023-04-30T01:41:34;99427.96;;;21.86;32.91
48718;BME280;34521;33.042;-96.586;2023-04-30T01:44:05;99429.02;;;21.44;33.41
48718;BME280;34521;33.042;-96.586;2023-04-30T01:46:23;99429.61;;;21.63;32.55
48718;BME280;34521;33.042;-96.586;2023-04-30T01:48:51;99429.69;;;22.24;31.72
48718;BME280;34521;33.042;-96.586;2023-04-30T01:51:18;99434.94;;;21.99;32.32
48718;BME280;34521;33.042;-96.586;2023-04-30T01:53:40;99439.16;;;22.06;32.01
48718;BME280;34521;33.042;-96.586;2023-04-30T01:56:02;99438.93;;;21.94;32.14
48718;BME280;34521;33.042;-96.586;2023-04-30T01:58:25;99442.22;;;21.70;32.48
48718;BME280;34521;33.042;-96.586;2023-04-30T02:00:50;99442.48;;;22.02;32.11
48718;BME280;34521;33.042;-96.586;2023-04-30T02:03:15;99443.51;;;21.79;32.41
48718;BME280;34521;33.042;-96.586;2023-04-30T02:05:40;99442.27;;;21.78;32.40
48718;BME280;34521;33.042;-96.586;2023-04-30T02:08:05;99439.79;;;22.12;32.30
48718;BME280;34521;33.042;-96.586;2023-04-30T02:10:34;99442.30;;;21.90;32.29
48718;BME280;34521;33.042;-96.586;2023-04-30T02:12:55;99446.50;;;22.06;32.33
48718;BME280;34521;33.042;-96.586;2023-04-30T02:15:21;99448.51;;;21.84;32.40
48718;BME280;34521;33.042;-96.586;2023-04-30T02:17:45;99452.79;;;21.45;32.83
48718;BME280;34521;33.042;-96.586;2023-04-30T02:20:11;99451.08;;;21.90;32.30
48718;BME280;34521;33.042;-96.586;2023-04-30T02:22:35;99450.49;;;21.75;32.47
48718;BME280;34521;33.042;-96.586;2023-04-30T02:25:00;99448.96;;;21.64;32.60
48718;BME280;34521;33.042;-96.586;2023-04-30T02:27:26;99451.21;;;21.76;32.47
48718;BME280;34521;33.042;-96.586;2023-04-30T02:29:50;99455.60;;;22.01;32.12
48718;BME280;34521;33.042;-96.586;2023-04-30T02:32:15;99458.15;;;22.27;32.02
48718;BME280;34521;33.042;-96.586;2023-04-30T02:34:41;99464.88;;;21.16;33.48
48718;BME280;34521;33.042;-96.586;2023-04-30T02:37:06;99468.50;;;21.35;33.18
48718;BME280;34521;33.042;-96.586;2023-04-30T02:39:30;99470.44;;;21.69;33.16
48718;BME280;34521;33.042;-96.586;2023-04-30T02:41:55;99471.62;;;21.11;33.84
48718;BME280;34521;33.042;-96.586;2023-04-30T02:44:20;99472.65;;;21.62;33.22
48718;BME280;34521;33.042;-96.586;2023-04-30T02:46:46;99475.55;;;21.71;33.01
48718;BME280;34521;33.042;-96.586;2023-04-30T02:49:11;99475.38;;;21.87;32.50
48718;BME280;34521;33.042;-96.586;2023-04-30T02:51:36;99477.09;;;21.88;32.48
48718;BME280;34521;33.042;-96.586;2023-04-30T02:54:01;99476.16;;;22.06;31.93
48718;BME280;34521;33.042;-96.586;2023-04-30T02:56:26;99475.71;;;21.93;32.14
48718;BME280;34521;33.042;-96.586;2023-04-30T02:58:51;99475.14;;;22.04;32.29
48718;BME280;34521;33.042;-96.586;2023-04-30T03:01:16;99477.72;;;21.89;32.78
48718;BME280;34521;33.042;-96.586;2023-04-30T03:03:41;99478.53;;;21.65;32.49
48718;BME280;34521;33.042;-96.586;2023-04-30T03:06:06;99479.49;;;21.41;32.79
48718;BME280;34521;33.042;-96.586;2023-04-30T03:08:31;99474.13;;;21.83;32.60
48718;BME280;34521;33.042;-96.586;2023-04-30T03:10:56;99473.84;;;21.46;32.77
48718;BME280;34521;33.042;-96.586;2023-04-30T03:13:21;99473.68;;;21.42;33.18
48718;BME280;34521;33.042;-96.586;2023-04-30T03:15:46;99472.72;;;21.41;32.86
48718;BME280;34521;33.042;-96.586;2023-04-30T03:18:11;99470.84;;;21.44;32.89
48718;BME280;34521;33.042;-96.586;2023-04-30T03:20:37;99467.55;;;21.21;33.17
48718;BME280;34521;33.042;-96.586;2023-04-30T03:23:02;99465.85;;;21.63;32.87
48718;BME280;34521;33.042;-96.586;2023-04-30T03:25:27;99465.02;;;21.19;33.17
48718;BME280;34521;33.042;-96.586;2023-04-30T03:27:52;99463.89;;;21.84;32.65
48718;BME280;34521;33.042;-96.586;2023-04-30T03:30:17;99458.86;;;21.97;32.51
48718;BME280;34521;33.042;-96.586;2023-04-30T03:32:42;99456.52;;;20.65;34.26
48718;BME280;34521;33.042;-96.586;2023-04-30T03:35:08;99451.29;;;21.10;33.89
48718;BME280;34521;33.042;-96.586;2023-04-30T03:37:32;99446.16;;;21.10;33.93
48718;BME280;34521;33.042;-96.586;2023-04-30T03:39:57;99445.84;;;20.93;34.43
48718;BME280;34521;33.042;-96.586;2023-04-30T03:42:22;99438.68;;;20.92;34.35
48718;BME280;34521;33.042;-96.586;2023-04-30T03:44:47;99433.86;;;21.52;33.26
48718;BME280;34521;33.042;-96.586;2023-04-30T03:47:12;99429.90;;;20.95;33.57
48718;BME280;34521;33.042;-96.586;2023-04-30T03:49:38;99427.82;;;21.74;32.88
48718;BME280;34521;33.042;-96.586;2023-04-30T03:52:03;99428.47;;;21.51;32.85
48718;BME280;34521;33.042;-96.586;2023-04-30T03:54:28;99425.62;;;21.55;32.52
48718;BME280;34521;33.042;-96.586;2023-04-30T03:56:53;99424.26;;;21.41;32.39
48718;BME280;34521;33.042;-96.586;2023-04-30T03:59:18;99414.10;;;21.53;32.79
48718;BME280;34521;33.042;-96.586;2023-04-30T04:01:43;99410.80;;;21.41;32.62
48718;BME280;34521;33.042;-96.586;2023-04-30T04:04:08;99408.06;;;21.38;32.63
48718;BME280;34521;33.042;-96.586;2023-04-30T04:06:33;99400.07;;;21.39;32.63
48718;BME280;34521;33.042;-96.586;2023-04-30T04:08:58;99398.62;;;21.93;32.56
48718;BME280;34521;33.042;-96.586;2023-04-30T04:11:23;99392.18;;;21.45;32.56
48718;BME280;34521;33.042;-96.586;2023-04-30T04:13:48;99385.90;;;21.81;32.41
48718;BME280;34521;33.042;-96.586;2023-04-30T04:16:13;99381.19;;;21.48;32.48
48718;BME280;34521;33.042;-96.586;2023-04-30T04:18:38;99379.50;;;21.43;32.54
48718;BME280;34521;33.042;-96.586;2023-04-30T04:21:03;99373.16;;;21.71;32.51
48718;BME280;34521;33.042;-96.586;2023-04-30T04:23:28;99370.90;;;21.83;32.26
48718;BME280;34521;33.042;-96.586;2023-04-30T04:25:54;99368.02;;;21.68;32.12
48718;BME280;34521;33.042;-96.586;2023-04-30T04:28:18;99367.07;;;21.87;31.87
48718;BME280;34521;33.042;-96.586;2023-04-30T04:30:44;99363.40;;;19.96;34.36
48718;BME280;34521;33.042;-96.586;2023-04-30T04:33:09;99360.44;;;20.35;34.29
48718;BME280;34521;33.042;-96.586;2023-04-30T04:35:34;99355.27;;;21.21;33.53
48718;BME280;34521;33.042;-96.586;2023-04-30T04:37:59;99355.74;;;20.05;35.03
48718;BME280;34521;33.042;-96.586;2023-04-30T04:40:24;99352.89;;;20.35;34.92
48718;BME280;34521;33.042;-96.586;2023-04-30T04:42:49;99348.82;;;21.44;33.20
48718;BME280;34521;33.042;-96.586;2023-04-30T04:45:14;99349.12;;;21.53;32.98
48718;BME280;34521;33.042;-96.586;2023-04-30T04:47:39;99346.34;;;21.36;32.85
48718;BME280;34521;33.042;-96.586;2023-04-30T04:50:05;99344.40;;;21.86;32.24
48718;BME280;34521;33.042;-96.586;2023-04-30T04:52:29;99341.01;;;21.32;32.27
48718;BME280;34521;33.042;-96.586;2023-04-30T04:54:55;99339.32;;;21.62;31.89
48718;BME280;34521;33.042;-96.586;2023-04-30T04:57:19;99338.47;;;21.87;31.83
48718;BME280;34521;33.042;-96.586;2023-04-30T04:59:44;99335.82;;;21.47;31.96
48718;BME280;34521;33.042;-96.586;2023-04-30T05:02:09;99336.93;;;21.93;31.46
48718;BME280;34521;33.042;-96.586;2023-04-30T05:04:34;99334.79;;;21.83;31.51
48718;BME280;34521;33.042;-96.586;2023-04-30T05:07:00;99328.50;;;21.38;32.04
48718;BME280;34521;33.042;-96.586;2023-04-30T05:09:24;99327.94;;;21.78;31.82
48718;BME280;34521;33.042;-96.586;2023-04-30T05:11:49;99330.56;;;22.08;31.48
48718;BME280;34521;33.042;-96.586;2023-04-30T05:14:15;99326.63;;;21.91;31.32
48718;BME280;34521;33.042;-96.586;2023-04-30T05:16:40;99325.76;;;21.70;31.54
48718;BME280;34521;33.042;-96.586;2023-04-30T05:19:05;99325.80;;;21.43;31.85
48718;BME280;34521;33.042;-96.586;2023-04-30T05:21:30;99322.82;;;21.77;31.44
48718;BME280;34521;33.042;-96.586;2023-04-30T05:23:55;99319.94;;;21.66;31.87
48718;BME280;34521;33.042;-96.586;2023-04-30T05:26:20;99315.89;;;21.47;31.74
48718;BME280;34521;33.042;-96.586;2023-04-30T05:28:45;99314.31;;;21.82;31.59
48718;BME280;34521;33.042;-96.586;2023-04-30T05:31:10;99312.09;;;20.73;33.24
48718;BME280;34521;33.042;-96.586;2023-04-30T05:33:35;99308.67;;;19.79;34.31
48718;BME280;34521;33.042;-96.586;2023-04-30T05:36:00;99311.05;;;19.89;34.94
48718;BME280;34521;33.042;-96.586;2023-04-30T05:38:25;99309.85;;;18.92;36.09
48718;BME280;34521;33.042;-96.586;2023-04-30T05:40:50;99307.76;;;19.35;35.51
48718;BME280;34521;33.042;-96.586;2023-04-30T05:43:15;99302.92;;;20.96;33.15
48718;BME280;34521;33.042;-96.586;2023-04-30T05:45:40;99302.29;;;21.31;32.40
48718;BME280;34521;33.042;-96.586;2023-04-30T05:48:05;99308.28;;;21.32;31.76
48718;BME280;34521;33.042;-96.586;2023-04-30T05:50:30;99309.59;;;21.99;31.49
48718;BME280;34521;33.042;-96.586;2023-04-30T05:52:56;99311.31;;;21.61;31.59
48718;BME280;34521;33.042;-96.586;2023-04-30T05:55:21;99311.78;;;21.83;31.32
48718;BME280;34521;33.042;-96.586;2023-04-30T05:57:45;99308.03;;;21.61;31.52
48718;BME280;34521;33.042;-96.586;2023-04-30T06:00:11;99307.37;;;21.59;31.27
48718;BME280;34521;33.042;-96.586;2023-04-30T06:02:36;99306.10;;;21.27;31.57
48718;BME280;34521;33.042;-96.586;2023-04-30T06:05:01;99305.24;;;21.47;31.39
48718;BME280;34521;33.042;-96.586;2023-04-30T06:07:26;99296.68;;;21.65;31.20
48718;BME280;34521;33.042;-96.586;2023-04-30T06:09:51;99293.29;;;21.38;31.40
48718;BME280;34521;33.042;-96.586;2023-04-30T06:12:16;99291.37;;;21.41;31.63
48718;BME280;34521;33.042;-96.586;2023-04-30T06:14:42;99294.45;;;22.30;30.59
48718;BME280;34521;33.042;-96.586;2023-04-30T06:17:06;99294.70;;;21.71;30.97
48718;BME280;34521;33.042;-96.586;2023-04-30T06:19:31;99294.02;;;21.52;31.17
48718;BME280;34521;33.042;-96.586;2023-04-30T06:21:56;99291.68;;;21.67;31.04
48718;BME280;34521;33.042;-96.586;2023-04-30T06:24:21;99289.06;;;21.71;30.91
48718;BME280;34521;33.042;-96.586;2023-04-30T06:26:46;99284.09;;;21.79;30.81
48718;BME280;34521;33.042;-96.586;2023-04-30T06:29:11;99281.20;;;19.46;34.47
48718;BME280;34521;33.042;-96.586;2023-04-30T06:31:42;99275.98;;;19.07;35.29
48718;BME280;34521;33.042;-96.586;2023-04-30T06:34:01;99274.43;;;19.25;35.36
48718;BME280;34521;33.042;-96.586;2023-04-30T06:36:26;99274.26;;;18.96;35.90
48718;BME280;34521;33.042;-96.586;2023-04-30T06:38:51;99269.32;;;18.83;36.34
48718;BME280;34521;33.042;-96.586;2023-04-30T06:41:16;99263.15;;;20.65;33.37
48718;BME280;34521;33.042;-96.586;2023-04-30T06:43:42;99259.25;;;21.31;32.42
48718;BME280;34521;33.042;-96.586;2023-04-30T06:46:07;99256.62;;;21.22;32.13
48718;BME280;34521;33.042;-96.586;2023-04-30T06:48:32;99257.15;;;21.35;31.76
48718;BME280;34521;33.042;-96.586;2023-04-30T06:50:57;99256.50;;;21.45;31.54
48718;BME280;34521;33.042;-96.586;2023-04-30T06:53:22;99253.84;;;21.70;30.92
48718;BME280;34521;33.042;-96.586;2023-04-30T06:55:48;99250.22;;;22.18;30.32
48718;BME280;34521;33.042;-96.586;2023-04-30T06:58:12;99245.90;;;22.20;30.01
48718;BME280;34521;33.042;-96.586;2023-04-30T07:00:37;99243.59;;;21.91;30.67
48718;BME280;34521;33.042;-96.586;2023-04-30T07:03:02;99238.01;;;22.28;30.40
48718;BME280;34521;33.042;-96.586;2023-04-30T07:05:27;99235.53;;;21.26;31.28
48718;BME280;34521;33.042;-96.586;2023-04-30T07:07:52;99230.74;;;22.57;30.07
48718;BME280;34521;33.042;-96.586;2023-04-30T07:10:17;99229.10;;;21.71;30.51
48718;BME280;34521;33.042;-96.586;2023-04-30T07:12:42;99235.22;;;21.35;31.19
48718;BME280;34521;33.042;-96.586;2023-04-30T07:15:08;99233.46;;;20.62;31.97
48718;BME280;34521;33.042;-96.586;2023-04-30T07:17:32;99233.70;;;21.62;31.12
48718;BME280;34521;33.042;-96.586;2023-04-30T07:19:57;99229.82;;;21.58;30.85
48718;BME280;34521;33.042;-96.586;2023-04-30T07:22:22;99224.75;;;21.04;31.47
48718;BME280;34521;33.042;-96.586;2023-04-30T07:24:47;99218.08;;;21.00;31.55
48718;BME280;34521;33.042;-96.586;2023-04-30T07:27:12;99215.54;;;20.15;32.59
48718;BME280;34521;33.042;-96.586;2023-04-30T07:29:38;99218.55;;;19.29;34.41
48718;BME280;34521;33.042;-96.586;2023-04-30T07:32:03;99215.28;;;18.68;35.35
48718;BME280;34521;33.042;-96.586;2023-04-30T07:34:27;99210.45;;;18.02;36.52
48718;BME280;34521;33.042;-96.586;2023-04-30T07:36:53;99208.95;;;18.48;36.17
48718;BME280;34521;33.042;-96.586;2023-04-30T07:39:17;99204.66;;;19.24;35.05
48718;BME280;34521;33.042;-96.586;2023-04-30T07:41:43;99197.14;;;20.30;33.19
48718;BME280;34521;33.042;-96.586;2023-04-30T07:44:13;99191.28;;;20.83;32.16
48718;BME280;34521;33.042;-96.586;2023-04-30T07:46:33;99191.23;;;20.83;31.89
48718;BME280;34521;33.042;-96.586;2023-04-30T07:48:59;99192.39;;;20.82;31.82
48718;BME280;34521;33.042;-96.586;2023-04-30T07:51:23;99191.70;;;21.22;31.06
48718;BME280;34521;33.042;-96.586;2023-04-30T07:53:48;99190.91;;;22.16;30.12
48718;BME280;34521;33.042;-96.586;2023-04-30T07:56:13;99190.14;;;21.16;30.91
48718;BME280;34521;33.042;-96.586;2023-04-30T07:58:38;99191.49;;;21.47;30.88
48718;BME280;34521;33.042;-96.586;2023-04-30T08:01:08;99191.25;;;21.12;31.24
48718;BME280;34521;33.042;-96.586;2023-04-30T08:03:33;99193.29;;;21.01;31.15
48718;BME280;34521;33.042;-96.586;2023-04-30T08:05:53;99191.92;;;21.07;31.02
48718;BME280;34521;33.042;-96.586;2023-04-30T08:08:18;99197.05;;;21.52;30.41
48718;BME280;34521;33.042;-96.586;2023-04-30T08:10:45;99192.95;;;20.77;31.33
48718;BME280;34521;33.042;-96.586;2023-04-30T08:13:09;99188.88;;;20.98;31.33
48718;BME280;34521;33.042;-96.586;2023-04-30T08:15:34;99192.35;;;20.93;31.15
48718;BME280;34521;33.042;-96.586;2023-04-30T08:17:59;99186.67;;;20.29;32.12
48718;BME280;34521;33.042;-96.586;2023-04-30T08:20:24;99183.76;;;21.11;31.25
48718;BME280;34521;33.042;-96.586;2023-04-30T08:22:49;99177.36;;;21.51;30.79
48718;BME280;34521;33.042;-96.586;2023-04-30T08:25:14;99170.81;;;21.27;30.82
48718;BME280;34521;33.042;-96.586;2023-04-30T08:27:39;99163.39;;;19.22;34.06
48718;BME280;34521;33.042;-96.586;2023-04-30T08:30:05;99158.94;;;17.99;35.95
48718;BME280;34521;33.042;-96.586;2023-04-30T08:32:29;99156.82;;;17.64;36.80
48718;BME280;34521;33.042;-96.586;2023-04-30T08:34:54;99158.77;;;18.01;36.60
48718;BME280;34521;33.042;-96.586;2023-04-30T08:37:19;99161.79;;;18.38;36.42
48718;BME280;34521;33.042;-96.586;2023-04-30T08:39:44;99160.77;;;19.73;33.71
48718;BME280;34521;33.042;-96.586;2023-04-30T08:42:12;99159.41;;;20.52;32.33
48718;BME280;34521;33.042;-96.586;2023-04-30T08:44:39;99164.56;;;21.00;31.73
48718;BME280;34521;33.042;-96.586;2023-04-30T08:46:59;99164.46;;;20.91;31.50
48718;BME280;34521;33.042;-96.586;2023-04-30T08:49:25;99163.19;;;21.60;30.40
48718;BME280;34521;33.042;-96.586;2023-04-30T08:51:49;99162.10;;;21.29;30.60
48718;BME280;34521;33.042;-96.586;2023-04-30T08:54:15;99159.85;;;21.23;30.62
48718;BME280;34521;33.042;-96.586;2023-04-30T08:56:40;99159.38;;;21.47;30.34
48718;BME280;34521;33.042;-96.586;2023-04-30T08:59:05;99158.51;;;21.29;30.53
48718;BME280;34521;33.042;-96.586;2023-04-30T09:01:30;99155.69;;;21.59;29.90
48718;BME280;34521;33.042;-96.586;2023-04-30T09:03:55;99157.43;;;21.70;30.01
48718;BME280;34521;33.042;-96.586;2023-04-30T09:06:20;99160.12;;;21.38;30.37
48718;BME280;34521;33.042;-96.586;2023-04-30T09:08:46;99157.81;;;20.99;30.79
48718;BME280;34521;33.042;-96.586;2023-04-30T09:11:20;99157.59;;;21.67;30.01
48718;BME280;34521;33.042;-96.586;2023-04-30T09:13:39;99157.55;;;21.19;30.53
48718;BME280;34521;33.042;-96.586;2023-04-30T09:16:00;99159.88;;;21.40;30.28
48718;BME280;34521;33.042;-96.586;2023-04-30T09:18:25;99156.77;;;20.90;30.51
48718;BME280;34521;33.042;-96.586;2023-04-30T09:20:55;99152.59;;;21.14;30.48
48718;BME280;34521;33.042;-96.586;2023-04-30T09:23:15;99152.32;;;20.92;30.76
48718;BME280;34521;33.042;-96.586;2023-04-30T09:25:41;99153.76;;;19.00;33.53
48718;BME280;34521;33.042;-96.586;2023-04-30T09:28:11;99152.36;;;18.57;34.58
48718;BME280;34521;33.042;-96.586;2023-04-30T09:30:30;99152.41;;;17.77;36.01
48718;BME280;34521;33.042;-96.586;2023-04-30T09:32:55;99156.41;;;18.08;36.21
48718;BME280;34521;33.042;-96.586;2023-04-30T09:35:28;99151.38;;;17.64;36.78
48718;BME280;34521;33.042;-96.586;2023-04-30T09:37:45;99151.32;;;19.91;33.29
48718;BME280;34521;33.042;-96.586;2023-04-30T09:40:11;99149.08;;;19.86;32.58
48718;BME280;34521;33.042;-96.586;2023-04-30T09:42:36;99153.25;;;20.55;31.76
48718;BME280;34521;33.042;-96.586;2023-04-30T09:45:01;99156.08;;;20.91;31.29
48718;BME280;34521;33.042;-96.586;2023-04-30T09:47:30;99152.28;;;21.14;30.67
48718;BME280;34521;33.042;-96.586;2023-04-30T09:49:51;99146.97;;;21.55;29.84
48718;BME280;34521;33.042;-96.586;2023-04-30T09:52:16;99149.66;;;21.43;30.19
48718;BME280;34521;33.042;-96.586;2023-04-30T09:54:43;99149.02;;;21.51;30.16
48718;BME280;34521;33.042;-96.586;2023-04-30T09:57:09;99147.94;;;21.25;30.37
48718;BME280;34521;33.042;-96.586;2023-04-30T09:59:32;99148.06;;;20.84;30.54
48718;BME280;34521;33.042;-96.586;2023-04-30T10:01:58;99149.48;;;21.18;30.20
48718;BME280;34521;33.042;-96.586;2023-04-30T10:04:21;99142.86;;;20.81;30.51
48718;BME280;34521;33.042;-96.586;2023-04-30T10:06:46;99145.57;;;21.33;29.92
48718;BME280;34521;33.042;-96.586;2023-04-30T10:09:13;99142.01;;;20.96;30.88
48718;BME280;34521;33.042;-96.586;2023-04-30T10:11:37;99141.39;;;21.35;30.00
48718;BME280;34521;33.042;-96.586;2023-04-30T10:14:05;99144.44;;;21.35;30.45
48718;BME280;34521;33.042;-96.586;2023-04-30T10:16:33;99146.54;;;21.22;30.06
48718;BME280;34521;33.042;-96.586;2023-04-30T10:18:52;99153.67;;;20.79;30.50
48718;BME280;34521;33.042;-96.586;2023-04-30T10:21:18;99156.99;;;20.44;30.86
48718;BME280;34521;33.042;-96.586;2023-04-30T10:23:41;99163.96;;;20.49;30.66
48718;BME280;34521;33.042;-96.586;2023-04-30T10:26:08;99173.14;;;18.12;34.89
48718;BME280;34521;33.042;-96.586;2023-04-30T10:28:32;99178.72;;;17.24;36.09
48718;BME280;34521;33.042;-96.586;2023-04-30T10:30:57;99188.06;;;16.97;36.87
48718;BME280;34521;33.042;-96.586;2023-04-30T10:33:27;99188.81;;;16.91;37.29
48718;BME280;34521;33.042;-96.586;2023-04-30T10:35:52;99186.70;;;17.67;36.12
48718;BME280;34521;33.042;-96.586;2023-04-30T10:38:20;99181.67;;;19.54;33.25
48718;BME280;34521;33.042;-96.586;2023-04-30T10:40:37;99181.63;;;20.12;32.29
48718;BME280;34521;33.042;-96.586;2023-04-30T10:43:02;99184.79;;;20.16;31.40
48718;BME280;34521;33.042;-96.586;2023-04-30T10:45:34;99184.97;;;20.22;31.55
48718;BME280;34521;33.042;-96.586;2023-04-30T10:47:55;99184.50;;;21.27;30.31
48718;BME280;34521;33.042;-96.586;2023-04-30T10:50:17;99185.38;;;21.26;30.04
48718;BME280;34521;33.042;-96.586;2023-04-30T10:52:43;99191.42;;;20.83;30.46
48718;BME280;34521;33.042;-96.586;2023-04-30T10:55:08;99207.56;;;21.16;29.80
48718;BME280;34521;33.042;-96.586;2023-04-30T10:57:41;99199.40;;;21.24;29.69
48718;BME280;34521;33.042;-96.586;2023-04-30T11:02:22;99200.35;;;20.75;30.15
48718;BME280;34521;33.042;-96.586;2023-04-30T11:07:12;99208.30;;;20.60;30.61
48718;BME280;34521;33.042;-96.586;2023-04-30T11:09:39;99211.44;;;20.75;30.43
48718;BME280;34521;33.042;-96.586;2023-04-30T11:12:04;99209.74;;;20.72;30.15
48718;BME280;34521;33.042;-96.586;2023-04-30T11:14:31;99210.95;;;20.40;30.50
48718;BME280;34521;33.042;-96.586;2023-04-30T11:16:53;99211.10;;;20.72;30.23
48718;BME280;34521;33.042;-96.586;2023-04-30T11:19:18;99233.44;;;20.94;30.43
48718;BME280;34521;33.042;-96.586;2023-04-30T11:24:08;99222.86;;;17.84;34.68
48718;BME280;34521;33.042;-96.586;2023-04-30T11:28:58;99247.13;;;16.77;36.95
48718;BME280;34521;33.042;-96.586;2023-04-30T11:31:32;99256.34;;;16.93;36.69
48718;BME280;34521;33.042;-96.586;2023-04-30T11:33:48;99265.67;;;16.42;37.45
48718;BME280;34521;33.042;-96.586;2023-04-30T11:36:14;99266.58;;;19.19;33.20
48718;BME280;34521;33.042;-96.586;2023-04-30T11:38:38;99267.68;;;19.80;32.02
48718;BME280;34521;33.042;-96.586;2023-04-30T11:41:05;99255.87;;;20.05;31.65
48718;BME280;34521;33.042;-96.586;2023-04-30T11:43:29;99277.47;;;20.05;31.25
48718;BME280;34521;33.042;-96.586;2023-04-30T11:46:04;99258.39;;;20.47;30.55
48718;BME280;34521;33.042;-96.586;2023-04-30T11:48:18;99272.10;;;20.35;30.66
48718;BME280;34521;33.042;-96.586;2023-04-30T11:50:43;99283.11;;;19.92;30.83
48718;BME280;34521;33.042;-96.586;2023-04-30T11:53:10;99287.34;;;20.05;30.61
48718;BME280;34521;33.042;-96.586;2023-04-30T11:55:33;99281.46;;;20.24;30.69
48718;BME280;34521;33.042;-96.586;2023-04-30T11:57:58;99277.44;;;20.46;30.71
48718;BME280;34521;33.042;-96.586;2023-04-30T12:00:27;99287.60;;;20.60;30.33
48718;BME280;34521;33.042;-96.586;2023-04-30T12:02:49;99280.09;;;20.31;30.58
48718;BME280;34521;33.042;-96.586;2023-04-30T12:05:15;99279.30;;;20.18;30.99
48718;BME280;34521;33.042;-96.586;2023-04-30T12:07:39;99285.02;;;20.30;30.30
48718;BME280;34521;33.042;-96.586;2023-04-30T12:10:04;99285.77;;;20.36;30.51
48718;BME280;34521;33.042;-96.586;2023-04-30T12:12:29;99292.94;;;20.71;30.11
48718;BME280;34521;33.042;-96.586;2023-04-30T12:14:54;99296.94;;;19.77;30.96
48718;BME280;34521;33.042;-96.586;2023-04-30T12:17:30;99303.15;;;20.43;30.77
48718;BME280;34521;33.042;-96.586;2023-04-30T12:19:44;99303.73;;;20.41;30.57
48718;BME280;34521;33.042;-96.586;2023-04-30T12:22:09;99301.54;;;18.23;33.56
48718;BME280;34521;33.042;-96.586;2023-04-30T12:24:34;99318.41;;;17.64;35.27
48718;BME280;34521;33.042;-96.586;2023-04-30T12:27:00;99316.60;;;16.75;36.81
48718;BME280;34521;33.042;-96.586;2023-04-30T12:29:24;99329.29;;;16.97;37.21
48718;BME280;34521;33.042;-96.586;2023-04-30T12:31:49;99328.22;;;16.48;37.63
48718;BME280;34521;33.042;-96.586;2023-04-30T12:34:14;99325.57;;;18.20;35.03
48718;BME280;34521;33.042;-96.586;2023-04-30T12:36:41;99323.32;;;19.68;32.36
48718;BME280;34521;33.042;-96.586;2023-04-30T12:39:09;99329.56;;;19.47;32.15
48718;BME280;34521;33.042;-96.586;2023-04-30T12:41:30;99329.10;;;20.08;31.42